createdAt,value
2018-05-24T00:01:12.877Z,7.60
2018-05-24T00:03:41.560Z,7.40
2018-05-24T00:06:10.242Z,6.37
2018-05-24T00:08:39.030Z,7.07
2018-05-24T00:11:07.918Z,5.57
2018-05-24T00:13:36.500Z,6.20
2018-05-24T00:16:05.103Z,4.73
2018-05-24T00:18:33.763Z,4.87
2018-05-24T00:21:02.558Z,5.33
2018-05-24T00:23:31.169Z,4.83
2018-05-24T00:25:59.823Z,4.50
2018-05-24T00:28:28.583Z,4.27
2018-05-24T00:30:57.403Z,4.73
2018-05-24T00:33:26.186Z,4.80
2018-05-24T00:35:54.870Z,5.47
2018-05-24T00:38:24.849Z,4.70
2018-05-24T00:40:53.474Z,5.13
2018-05-24T00:43:22.156Z,5.27
2018-05-24T00:45:50.841Z,4.43
2018-05-24T00:48:20.140Z,5.23
2018-05-24T00:50:49.476Z,5.13
2018-05-24T00:53:18.197Z,4.97
2018-05-24T00:55:47.013Z,5.67
2018-05-24T00:58:15.704Z,5.27
2018-05-24T01:00:46.174Z,5.23
2018-05-24T01:03:14.736Z,5.97
2018-05-24T01:05:43.467Z,5.87
2018-05-24T01:08:12.075Z,5.10
2018-05-24T01:10:41.656Z,5.83
2018-05-24T01:13:10.269Z,6.20
2018-05-24T01:15:39.053Z,5.60
2018-05-24T01:18:07.850Z,5.03
2018-05-24T01:20:39.809Z,5.07
2018-05-24T01:23:08.590Z,4.67
2018-05-24T01:25:37.393Z,4.70
2018-05-24T01:28:20.949Z,5.23
2018-05-24T01:30:49.727Z,6.10
2018-05-24T01:33:18.411Z,5.10
2018-05-24T01:35:47.198Z,6.90
2018-05-24T01:38:15.889Z,5.87
2018-05-24T01:40:44.667Z,5.80
2018-05-24T01:43:13.458Z,5.63
2018-05-24T01:45:42.162Z,7.20
2018-05-24T01:48:10.827Z,6.47
2018-05-24T01:50:39.616Z,5.47
2018-05-24T01:53:08.299Z,5.60
2018-05-24T01:55:36.964Z,6.17
2018-05-24T01:58:05.673Z,5.10
2018-05-24T02:00:34.350Z,5.73
2018-05-24T02:03:03.048Z,5.57
2018-05-24T02:05:31.726Z,5.50
2018-05-24T02:08:00.422Z,5.57
2018-05-24T02:10:29.201Z,5.50
2018-05-24T02:12:57.836Z,7.03
2018-05-24T02:15:26.569Z,6.17
2018-05-24T02:17:55.356Z,6.47
2018-05-24T02:20:24.050Z,6.57
2018-05-24T02:22:52.829Z,5.23
2018-05-24T02:25:21.616Z,5.83
2018-05-24T02:27:50.404Z,4.97
2018-05-24T02:30:19.131Z,4.93
2018-05-24T02:32:48.321Z,5.83
2018-05-24T02:35:17.076Z,5.43
2018-05-24T02:37:45.968Z,5.53
2018-05-24T02:40:14.800Z,6.13
2018-05-24T02:42:43.541Z,5.67
2018-05-24T02:45:12.325Z,5.07
2018-05-24T02:47:41.014Z,5.17
2018-05-24T02:50:09.712Z,5.80
2018-05-24T02:52:38.303Z,5.97
2018-05-24T02:55:06.980Z,10.57
2018-05-24T02:57:35.589Z,5.50
2018-05-24T03:00:05.378Z,8.37
2018-05-24T03:02:34.151Z,7.97
2018-05-24T03:05:02.831Z,7.17
2018-05-24T03:07:31.618Z,11.63
2018-05-24T03:10:00.375Z,5.80
2018-05-24T03:12:29.095Z,6.27
2018-05-24T03:14:57.877Z,13.23
2018-05-24T03:17:26.567Z,24.37
2018-05-24T03:19:55.318Z,12.00
2018-05-24T03:22:24.137Z,8.17
2018-05-24T03:24:52.826Z,7.90
2018-05-24T03:27:21.506Z,6.20
2018-05-24T03:29:50.105Z,5.73
2018-05-24T03:32:18.972Z,5.67
2018-05-24T03:34:47.669Z,6.73
2018-05-24T03:37:16.452Z,5.40
2018-05-24T03:39:45.103Z,5.97
2018-05-24T03:42:13.771Z,5.60
2018-05-24T03:44:42.404Z,5.50
2018-05-24T03:47:11.094Z,5.47
2018-05-24T03:49:39.846Z,6.00
2018-05-24T03:52:08.678Z,5.97
2018-05-24T03:54:37.610Z,6.53
2018-05-24T03:57:06.444Z,5.53
2018-05-24T04:02:59.214Z,6.53
2018-05-24T04:05:28.105Z,5.77
2018-05-24T04:07:56.820Z,6.33
2018-05-24T04:10:25.607Z,6.47
2018-05-24T04:12:54.371Z,7.27
2018-05-24T04:15:23.150Z,4.60
2018-05-24T04:17:51.939Z,5.03
2018-05-24T04:20:20.728Z,5.47
2018-05-24T04:22:49.309Z,5.53
2018-05-24T04:25:18.183Z,4.40
2018-05-24T04:27:46.813Z,4.13
2018-05-24T04:30:15.569Z,4.63
2018-05-24T04:32:44.357Z,4.33
2018-05-24T04:35:13.142Z,4.50
2018-05-24T04:37:41.865Z,4.40
2018-05-24T04:40:10.614Z,4.07
2018-05-24T04:42:39.476Z,3.70
2018-05-24T04:45:08.189Z,3.73
2018-05-24T04:47:36.920Z,4.03
2018-05-24T04:50:05.736Z,4.40
2018-05-24T04:52:34.449Z,5.47
2018-05-24T04:55:03.090Z,4.60
2018-05-24T04:57:31.821Z,4.37
2018-05-24T05:00:00.611Z,4.77
2018-05-24T05:02:29.258Z,5.80
2018-05-24T05:04:58.388Z,4.47
2018-05-24T05:07:27.178Z,5.43
2018-05-24T05:09:56.009Z,5.37
2018-05-24T05:12:24.708Z,5.63
2018-05-24T05:14:53.335Z,4.80
2018-05-24T05:17:22.563Z,4.60
2018-05-24T05:19:51.289Z,4.73
2018-05-24T05:22:19.923Z,4.87
2018-05-24T05:24:48.474Z,4.97
2018-05-24T05:27:17.269Z,4.60
2018-05-24T05:29:45.957Z,5.57
2018-05-24T05:32:14.643Z,4.20
2018-05-24T05:34:43.439Z,4.60
2018-05-24T05:37:12.113Z,4.37
2018-05-24T05:39:40.901Z,11.40
2018-05-24T05:42:10.304Z,10.47
2018-05-24T05:44:38.932Z,4.33
2018-05-24T05:47:07.562Z,4.20
2018-05-24T05:49:36.357Z,5.53
2018-05-24T05:52:04.975Z,4.47
2018-05-24T05:54:33.577Z,9.43
2018-05-24T05:57:02.204Z,7.63
2018-05-24T05:59:31.055Z,6.17
2018-05-24T06:02:00.131Z,7.83
2018-05-24T06:04:28.680Z,6.33
2018-05-24T06:06:57.459Z,5.93
2018-05-24T06:09:26.044Z,6.10
2018-05-24T06:11:54.833Z,7.87
2018-05-24T06:14:23.615Z,8.10
2018-05-24T06:16:52.403Z,4.90
2018-05-24T06:19:21.672Z,4.27
2018-05-24T06:21:50.605Z,4.37
2018-05-24T06:24:19.250Z,8.87
2018-05-24T06:26:47.964Z,5.37
2018-05-24T06:29:16.755Z,4.67
2018-05-24T06:31:45.996Z,4.73
2018-05-24T06:34:14.734Z,4.67
2018-05-24T06:36:43.522Z,4.70
2018-05-24T06:39:12.975Z,5.47
2018-05-24T06:41:41.708Z,5.40
2018-05-24T06:44:11.004Z,4.87
2018-05-24T06:46:39.708Z,5.40
2018-05-24T06:49:08.483Z,5.30
2018-05-24T06:51:37.269Z,5.70
2018-05-24T06:54:05.994Z,5.50
2018-05-24T06:56:34.644Z,7.27
2018-05-24T06:59:03.428Z,5.97
2018-05-24T07:01:32.318Z,6.43
2018-05-24T07:04:01.463Z,5.77
2018-05-24T07:06:30.203Z,4.90
2018-05-24T07:08:58.849Z,3.73
2018-05-24T07:11:27.671Z,3.00
2018-05-24T07:13:56.459Z,2.60
2018-05-24T07:16:25.081Z,2.60
2018-05-24T07:18:53.706Z,3.10
2018-05-24T07:21:22.387Z,3.40
2018-05-24T07:23:51.627Z,3.00
2018-05-24T07:26:20.398Z,3.00
2018-05-24T07:28:49.085Z,3.47
2018-05-24T07:31:17.905Z,3.87
2018-05-24T07:33:46.761Z,3.17
2018-05-24T07:36:15.442Z,3.87
2018-05-24T07:38:44.233Z,4.00
2018-05-24T07:41:13.023Z,3.63
2018-05-24T07:43:41.813Z,3.53
2018-05-24T07:46:10.702Z,3.53
2018-05-24T07:48:39.484Z,3.80
2018-05-24T07:51:08.274Z,7.57
2018-05-24T07:53:37.559Z,6.57
2018-05-24T07:56:06.769Z,3.10
2018-05-24T07:58:35.455Z,3.70
2018-05-24T08:01:04.309Z,2.73
2018-05-24T08:03:32.985Z,2.37
2018-05-24T08:06:01.616Z,2.03
2018-05-24T08:08:30.597Z,2.00
2018-05-24T08:10:59.390Z,2.77
2018-05-24T08:13:28.177Z,2.00
2018-05-24T08:15:57.071Z,1.93
2018-05-24T08:18:25.750Z,2.10
2018-05-24T08:20:54.743Z,2.23
2018-05-24T08:23:23.509Z,2.30
2018-05-24T08:25:52.628Z,2.70
2018-05-24T08:28:21.413Z,2.37
2018-05-24T08:30:50.308Z,2.40
2018-05-24T08:33:19.001Z,2.63
2018-05-24T08:35:47.623Z,2.60
2018-05-24T08:38:16.463Z,3.60
2018-05-24T08:40:45.579Z,2.67
2018-05-24T08:43:14.445Z,3.17
2018-05-24T08:45:43.705Z,2.47
2018-05-24T08:48:12.533Z,2.93
2018-05-24T08:50:41.203Z,2.67
2018-05-24T08:53:10.004Z,3.47
2018-05-24T08:55:38.697Z,2.73
2018-05-24T08:58:07.476Z,2.60
2018-05-24T09:00:36.164Z,3.00
2018-05-24T09:03:04.956Z,5.87
2018-05-24T09:05:33.737Z,3.27
2018-05-24T09:08:03.345Z,3.77
2018-05-24T09:10:32.133Z,4.67
2018-05-24T09:13:00.928Z,3.67
2018-05-24T09:15:29.915Z,3.00
2018-05-24T09:17:58.663Z,3.30
2018-05-24T09:20:27.378Z,3.50
2018-05-24T09:22:55.969Z,2.83
2018-05-24T09:25:24.808Z,3.40
2018-05-24T09:27:53.548Z,3.37
2018-05-24T09:30:22.397Z,3.50
2018-05-24T09:32:51.011Z,3.40
2018-05-24T09:35:19.801Z,3.23
2018-05-24T09:37:48.488Z,2.73
2018-05-24T09:40:17.275Z,3.30
2018-05-24T09:42:46.179Z,3.47
2018-05-24T09:45:17.204Z,3.63
2018-05-24T09:47:45.926Z,4.00
2018-05-24T09:50:14.573Z,3.83
2018-05-24T09:52:43.322Z,4.30
2018-05-24T09:55:12.184Z,3.37
2018-05-24T09:57:40.898Z,3.33
2018-05-24T10:00:09.688Z,4.67
2018-05-24T10:02:38.471Z,3.93
2018-05-24T10:05:07.260Z,4.90
2018-05-24T10:07:35.945Z,4.60
2018-05-24T10:10:04.628Z,3.77
2018-05-24T10:12:34.246Z,3.80
2018-05-24T10:15:03.044Z,3.30
2018-05-24T10:17:31.809Z,4.60
2018-05-24T10:20:00.597Z,3.37
2018-05-24T10:22:29.282Z,3.60
2018-05-24T10:24:57.967Z,3.00
2018-05-24T10:27:26.576Z,3.67
2018-05-24T10:29:56.978Z,2.87
2018-05-24T10:32:26.271Z,3.53
2018-05-24T10:34:54.941Z,3.50
2018-05-24T10:37:23.574Z,3.67
2018-05-24T10:39:52.496Z,2.97
2018-05-24T10:42:21.218Z,3.13
2018-05-24T10:44:50.004Z,3.50
2018-05-24T10:47:18.694Z,3.00
2018-05-24T10:49:47.612Z,2.70
2018-05-24T10:52:16.399Z,3.30
2018-05-24T10:54:45.186Z,6.87
2018-05-24T10:57:13.805Z,2.50
2018-05-24T10:59:43.332Z,2.90
2018-05-24T11:02:12.165Z,3.70
2018-05-24T11:04:41.417Z,2.83
2018-05-24T11:07:10.159Z,2.60
2018-05-24T11:09:38.937Z,3.13
2018-05-24T11:12:07.518Z,3.07
2018-05-24T11:14:36.307Z,3.10
2018-05-24T11:17:04.999Z,3.23
2018-05-24T11:19:33.663Z,2.33
2018-05-24T11:22:02.464Z,6.67
2018-05-24T11:24:31.149Z,5.20
2018-05-24T11:27:00.037Z,4.40
2018-05-24T11:29:28.827Z,2.90
2018-05-24T11:31:57.574Z,3.10
2018-05-24T11:34:26.420Z,3.27
2018-05-24T11:36:55.075Z,3.37
2018-05-24T11:39:24.310Z,4.37
2018-05-24T11:41:54.222Z,3.43
2018-05-24T11:44:22.921Z,3.70
2018-05-24T11:46:52.386Z,3.30
2018-05-24T11:49:22.093Z,2.90
2018-05-24T11:51:50.707Z,3.60
2018-05-24T11:54:20.078Z,3.33
2018-05-24T11:56:48.833Z,3.83
2018-05-24T11:59:17.553Z,3.83
2018-05-24T12:01:46.349Z,2.73
2018-05-24T12:04:16.970Z,3.63
2018-05-24T12:06:45.647Z,2.87
2018-05-24T12:09:14.337Z,3.80
2018-05-24T12:11:43.125Z,3.90
2018-05-24T12:14:11.812Z,3.27
2018-05-24T12:16:41.194Z,3.63
2018-05-24T12:19:10.000Z,3.00
2018-05-24T12:21:38.724Z,3.20
2018-05-24T12:24:07.444Z,2.97
2018-05-24T12:26:36.061Z,2.87
2018-05-24T12:29:05.583Z,4.30
2018-05-24T12:31:34.351Z,2.97
2018-05-24T12:34:03.029Z,3.07
2018-05-24T12:36:31.616Z,3.37
2018-05-24T12:39:00.404Z,4.30
2018-05-24T12:41:29.924Z,4.53
2018-05-24T12:43:58.585Z,4.27
2018-05-24T12:46:27.193Z,4.30
2018-05-24T12:48:56.033Z,3.87
2018-05-24T12:51:24.563Z,3.80
2018-05-24T12:53:53.539Z,3.80
2018-05-24T12:56:22.323Z,4.40
2018-05-24T12:58:50.833Z,5.03
2018-05-24T13:01:19.417Z,4.73
2018-05-24T13:03:48.067Z,5.00
2018-05-24T13:06:16.904Z,4.53
2018-05-24T13:08:45.772Z,4.80
2018-05-24T13:11:14.502Z,4.03
2018-05-24T13:13:43.029Z,3.70
2018-05-24T13:16:11.701Z,3.43
2018-05-24T13:18:40.489Z,2.70
2018-05-24T13:21:09.174Z,2.90
2018-05-24T13:23:37.865Z,3.50
2018-05-24T13:26:06.647Z,3.50
2018-05-24T13:28:35.161Z,3.83
2018-05-24T13:31:04.017Z,2.80
2018-05-24T13:33:32.836Z,3.37
2018-05-24T13:36:01.492Z,4.40
2018-05-24T13:38:30.275Z,3.93
2018-05-24T13:40:58.961Z,4.57
2018-05-24T13:43:27.544Z,4.10
2018-05-24T13:45:56.235Z,4.20
2018-05-24T13:48:25.017Z,4.93
2018-05-24T13:50:53.706Z,4.53
2018-05-24T13:53:22.505Z,5.37
2018-05-24T13:55:51.071Z,4.47
2018-05-24T13:58:19.757Z,5.43
2018-05-24T14:00:48.507Z,5.87
2018-05-24T14:03:17.241Z,5.43
2018-05-24T14:05:46.090Z,6.03
2018-05-24T14:08:14.852Z,5.47
2018-05-24T14:10:43.419Z,6.47
2018-05-24T14:13:13.090Z,7.33
2018-05-24T14:15:41.786Z,4.90
2018-05-24T14:18:10.527Z,4.97
2018-05-24T14:20:39.217Z,4.07
2018-05-24T14:23:08.027Z,4.33
2018-05-24T14:25:36.724Z,3.83
2018-05-24T14:28:05.408Z,4.13
2018-05-24T14:30:34.044Z,4.30
2018-05-24T14:33:02.757Z,5.30
2018-05-24T14:35:31.272Z,4.57
2018-05-24T14:38:00.047Z,5.10
2018-05-24T14:40:28.733Z,5.50
2018-05-24T14:42:57.520Z,4.70
2018-05-24T14:45:26.426Z,4.60
2018-05-24T14:47:58.598Z,4.43
2018-05-24T14:50:27.259Z,4.90
2018-05-24T14:52:55.951Z,4.47
2018-05-24T14:55:24.466Z,4.93
2018-05-24T14:57:53.215Z,18.57
2018-05-24T15:00:22.520Z,5.73
2018-05-24T15:02:51.304Z,5.70
2018-05-24T15:05:19.987Z,5.60
2018-05-24T15:07:48.678Z,5.40
2018-05-24T15:10:17.376Z,5.70
2018-05-24T15:12:46.045Z,4.80
2018-05-24T15:15:14.830Z,3.80
2018-05-24T15:17:43.533Z,3.53
2018-05-24T15:20:12.304Z,3.47
2018-05-24T15:22:40.889Z,3.13
2018-05-24T15:25:09.676Z,3.67
2018-05-24T15:27:38.228Z,3.80
2018-05-24T15:30:06.987Z,3.80
2018-05-24T15:32:35.726Z,5.03
2018-05-24T15:35:04.410Z,5.17
2018-05-24T15:37:32.917Z,7.63
2018-05-24T15:40:01.479Z,9.20
2018-05-24T15:42:30.265Z,6.60
2018-05-24T15:44:59.435Z,6.20
2018-05-24T15:47:27.991Z,7.93
2018-05-24T15:49:56.627Z,8.23
2018-05-24T15:52:25.270Z,12.77
2018-05-24T15:54:54.008Z,7.23
2018-05-24T15:57:22.744Z,7.73
2018-05-24T15:59:51.469Z,14.83
2018-05-24T16:02:20.103Z,6.33
2018-05-24T16:04:48.838Z,7.17
2018-05-24T16:07:17.624Z,13.23
2018-05-24T16:09:46.308Z,8.23
2018-05-24T16:12:15.103Z,9.00
2018-05-24T16:14:43.801Z,9.13
2018-05-24T16:17:12.470Z,6.90
2018-05-24T16:19:41.349Z,7.37
2018-05-24T16:22:09.941Z,10.20
2018-05-24T16:24:38.729Z,15.63
2018-05-24T16:27:07.514Z,6.70
2018-05-24T16:29:36.303Z,6.60
2018-05-24T16:32:05.727Z,5.93
2018-05-24T16:34:34.357Z,5.93
2018-05-24T16:37:03.250Z,5.30
2018-05-24T16:39:32.111Z,6.00
2018-05-24T16:42:00.854Z,4.60
2018-05-24T16:44:29.549Z,4.97
2018-05-24T16:46:58.222Z,4.60
2018-05-24T16:49:26.815Z,4.73
2018-05-24T16:55:27.160Z,4.37
2018-05-24T16:57:55.845Z,5.93
2018-05-24T17:00:25.030Z,4.80
2018-05-24T17:02:53.628Z,4.93
2018-05-24T17:05:22.304Z,5.00
2018-05-24T17:07:51.095Z,5.30
2018-05-24T17:10:19.744Z,5.67
2018-05-24T17:12:48.479Z,5.33
2018-05-24T17:15:17.656Z,5.13
2018-05-24T17:17:46.342Z,10.37
2018-05-24T17:20:14.855Z,8.07
2018-05-24T17:22:43.575Z,5.83
2018-05-24T17:25:12.191Z,5.60
2018-05-24T17:27:40.779Z,4.70
2018-05-24T17:30:09.673Z,5.17
2018-05-24T17:32:38.350Z,5.20
2018-05-24T17:35:07.068Z,5.10
2018-05-24T17:37:35.619Z,4.83
2018-05-24T17:40:04.202Z,5.73
2018-05-24T17:42:32.989Z,5.10
2018-05-24T17:45:01.675Z,6.30
2018-05-24T17:47:30.462Z,6.10
2018-05-24T17:49:59.248Z,7.00
2018-05-24T17:52:27.832Z,7.03
2018-05-24T17:54:56.574Z,18.63
2018-05-24T17:57:25.233Z,23.53
2018-05-24T17:59:53.987Z,11.43
2018-05-24T18:02:22.671Z,9.37
2018-05-24T18:04:55.808Z,8.40
2018-05-24T18:07:26.818Z,7.80
2018-05-24T18:09:55.595Z,8.30
2018-05-24T18:12:24.239Z,9.03
2018-05-24T18:14:52.969Z,6.53
2018-05-24T18:17:21.642Z,6.87
2018-05-24T18:19:50.329Z,6.80
2018-05-24T18:22:19.016Z,6.37
2018-05-24T18:24:47.754Z,7.67
2018-05-24T18:27:16.325Z,7.77
2018-05-24T18:29:45.685Z,8.60
2018-05-24T18:32:14.898Z,8.73
2018-05-24T18:34:43.626Z,9.20
2018-05-24T18:37:12.353Z,8.73
2018-05-24T18:39:41.042Z,9.27
2018-05-24T18:42:09.722Z,9.63
2018-05-24T18:44:38.307Z,9.00
2018-05-24T18:47:06.954Z,8.23
2018-05-24T18:49:35.580Z,7.23
2018-05-24T18:52:04.157Z,7.73
2018-05-24T18:54:32.840Z,7.97
2018-05-24T18:57:02.241Z,8.67
2018-05-24T18:59:30.827Z,13.13
2018-05-24T19:01:59.639Z,8.23
2018-05-24T19:04:28.207Z,8.87
2018-05-24T19:06:56.986Z,9.10
2018-05-24T19:09:25.668Z,9.57
2018-05-24T19:11:54.467Z,8.07
2018-05-24T19:14:23.684Z,8.10
2018-05-24T19:16:52.544Z,9.00
2018-05-24T19:19:21.226Z,9.27
2018-05-24T19:21:49.921Z,10.00
2018-05-24T19:24:18.502Z,8.77
2018-05-24T19:26:47.178Z,9.53
2018-05-24T19:29:16.443Z,7.17
2018-05-24T19:31:45.986Z,7.80
2018-05-24T19:34:18.217Z,7.47
2018-05-24T19:36:48.268Z,8.23
2018-05-24T19:39:17.587Z,7.73
2018-05-24T19:41:46.281Z,7.60
2018-05-24T19:44:15.143Z,9.43
2018-05-24T19:46:43.929Z,9.10
2018-05-24T19:49:12.821Z,8.27
2018-05-24T19:51:41.611Z,9.03
2018-05-24T19:54:10.300Z,8.83
2018-05-24T19:56:38.951Z,9.47
2018-05-24T19:59:07.663Z,8.27
2018-05-24T20:01:36.194Z,8.90
2018-05-24T20:04:04.843Z,8.20
2018-05-24T20:06:33.596Z,7.97
2018-05-24T20:09:02.202Z,8.87
2018-05-24T20:11:30.888Z,9.40
2018-05-24T20:13:59.392Z,8.40
2018-05-24T20:16:27.933Z,8.30
2018-05-24T20:18:56.577Z,8.73
2018-05-24T20:21:25.214Z,9.90
2018-05-24T20:23:54.031Z,8.73
2018-05-24T20:26:22.787Z,8.57
2018-05-24T20:28:52.469Z,8.47
2018-05-24T20:31:21.654Z,28.70
2018-05-24T20:33:50.286Z,23.87
2018-05-24T20:36:19.066Z,11.53
2018-05-24T20:38:48.669Z,9.33
2018-05-24T20:41:17.969Z,9.53
2018-05-24T20:43:46.655Z,8.80
2018-05-24T20:46:16.670Z,9.43
2018-05-24T20:48:45.480Z,8.63
2018-05-24T20:51:15.376Z,9.93
2018-05-24T20:53:44.157Z,9.17
2018-05-24T20:56:12.853Z,9.50
2018-05-24T20:58:41.597Z,14.47
2018-05-24T21:01:10.260Z,18.03
2018-05-24T21:03:39.000Z,10.40
2018-05-24T21:06:07.791Z,9.60
2018-05-24T21:08:36.935Z,9.07
2018-05-24T21:11:05.560Z,11.20
2018-05-24T21:13:34.355Z,12.60
2018-05-24T21:16:03.053Z,11.87
2018-05-24T21:18:32.649Z,10.90
2018-05-24T21:21:01.435Z,9.33
2018-05-24T21:23:30.122Z,9.93
2018-05-24T21:25:58.809Z,10.50
2018-05-24T21:28:28.121Z,11.10
2018-05-24T21:30:56.688Z,14.87
2018-05-24T21:33:25.792Z,14.63
2018-05-24T21:35:54.428Z,10.17
2018-05-24T21:38:23.055Z,10.67
2018-05-24T21:40:51.615Z,10.30
2018-05-24T21:43:20.316Z,9.67
2018-05-24T21:45:48.918Z,9.67
2018-05-24T21:48:17.693Z,10.83
2018-05-24T21:50:47.199Z,10.73
2018-05-24T21:53:15.881Z,13.37
2018-05-24T21:55:44.667Z,13.67
2018-05-24T21:58:13.350Z,10.17
2018-05-24T22:00:47.767Z,10.77
2018-05-24T22:03:16.660Z,11.93
2018-05-24T22:05:45.473Z,12.00
2018-05-24T22:08:14.235Z,11.93
2018-05-24T22:10:43.131Z,10.90
2018-05-24T22:13:13.525Z,15.27
2018-05-24T22:15:42.417Z,12.60
2018-05-24T22:18:11.024Z,11.33
2018-05-24T22:20:39.700Z,11.37
2018-05-24T22:23:08.446Z,11.83
2018-05-24T22:25:37.284Z,11.50
2018-05-24T22:28:05.968Z,13.00
2018-05-24T22:30:34.494Z,13.70
2018-05-24T22:33:03.235Z,11.27
2018-05-24T22:35:32.020Z,11.50
2018-05-24T22:38:00.615Z,12.67
2018-05-24T22:40:29.389Z,12.43
2018-05-24T22:42:58.087Z,13.17
2018-05-24T22:45:26.869Z,11.57
2018-05-24T22:47:55.650Z,11.60
2018-05-24T22:50:24.340Z,10.27
2018-05-24T22:52:53.005Z,10.10
2018-05-24T22:55:21.808Z,9.83
2018-05-24T22:57:50.961Z,10.10
2018-05-24T23:00:19.629Z,10.97
2018-05-24T23:02:48.477Z,11.10
2018-05-24T23:05:17.372Z,11.83
2018-05-24T23:07:46.053Z,11.53
2018-05-24T23:10:14.767Z,11.57
2018-05-24T23:12:43.526Z,10.33
2018-05-24T23:15:12.209Z,10.93
2018-05-24T23:17:40.993Z,10.67
2018-05-24T23:20:09.689Z,11.27
2018-05-24T23:22:38.529Z,10.87
2018-05-24T23:25:07.361Z,11.10
2018-05-24T23:27:35.944Z,10.17
2018-05-24T23:30:04.747Z,11.03
2018-05-24T23:32:33.351Z,11.50
2018-05-24T23:35:02.033Z,11.00
2018-05-24T23:37:30.786Z,12.33
2018-05-24T23:39:59.419Z,12.17
2018-05-24T23:42:28.166Z,11.30
2018-05-24T23:44:57.052Z,11.10
2018-05-24T23:47:25.831Z,10.03
2018-05-24T23:49:54.640Z,10.00
2018-05-24T23:52:23.406Z,10.77
2018-05-24T23:54:57.418Z,10.47
2018-05-24T23:57:26.211Z,10.80
2018-05-24T23:59:55.107Z,10.17
